sensor_id;sensor_type;location;lat;lon;timestamp;P1;durP1;ratioP1;P2;durP2;ratioP2
80778;SDS011;70170;47.856;10.956;2023-06-22T00:01:03;16.83;;;5.75;;
80778;SDS011;70170;47.856;10.956;2023-06-22T00:03:28;19.70;;;7.22;;
80778;SDS011;70170;47.856;10.956;2023-06-22T00:05:53;17.27;;;6.53;;
80778;SDS011;70170;47.856;10.956;2023-06-22T00:08:19;17.52;;;6.03;;
80778;SDS011;70170;47.856;10.956;2023-06-22T00:10:44;11.95;;;6.60;;
80778;SDS011;70170;47.856;10.956;2023-06-22T00:13:11;14.23;;;6.65;;
80778;SDS011;70170;47.856;10.956;2023-06-22T00:15:37;16.33;;;7.10;;
80778;SDS011;70170;47.856;10.956;2023-06-22T00:18:04;17.77;;;7.28;;
80778;SDS011;70170;47.856;10.956;2023-06-22T00:20:30;17.67;;;6.18;;
80778;SDS011;70170;47.856;10.956;2023-06-22T00:22:57;25.50;;;7.47;;
80778;SDS011;70170;47.856;10.956;2023-06-22T00:25:23;19.67;;;6.78;;
80778;SDS011;70170;47.856;10.956;2023-06-22T00:27:49;15.65;;;7.75;;
80778;SDS011;70170;47.856;10.956;2023-06-22T00:30:18;17.88;;;6.90;;
80778;SDS011;70170;47.856;10.956;2023-06-22T00:32:44;14.68;;;7.15;;
80778;SDS011;70170;47.856;10.956;2023-06-22T00:35:10;24.58;;;7.70;;
80778;SDS011;70170;47.856;10.956;2023-06-22T00:37:37;16.05;;;6.85;;
80778;SDS011;70170;47.856;10.956;2023-06-22T00:40:03;20.38;;;7.50;;
80778;SDS011;70170;47.856;10.956;2023-06-22T00:42:30;15.73;;;6.70;;
80778;SDS011;70170;47.856;10.956;2023-06-22T00:44:55;13.20;;;7.78;;
80778;SDS011;70170;47.856;10.956;2023-06-22T00:47:21;16.17;;;6.95;;
80778;SDS011;70170;47.856;10.956;2023-06-22T00:49:47;14.82;;;6.90;;
80778;SDS011;70170;47.856;10.956;2023-06-22T00:52:16;12.77;;;6.95;;
80778;SDS011;70170;47.856;10.956;2023-06-22T00:54:45;22.33;;;7.57;;
80778;SDS011;70170;47.856;10.956;2023-06-22T00:57:14;13.30;;;7.03;;
80778;SDS011;70170;47.856;10.956;2023-06-22T00:59:42;13.85;;;6.55;;
80778;SDS011;70170;47.856;10.956;2023-06-22T01:02:08;18.80;;;7.55;;
80778;SDS011;70170;47.856;10.956;2023-06-22T01:04:34;21.08;;;7.70;;
80778;SDS011;70170;47.856;10.956;2023-06-22T01:09:59;16.88;;;7.43;;
80778;SDS011;70170;47.856;10.956;2023-06-22T01:12:32;16.23;;;7.35;;
80778;SDS011;70170;47.856;10.956;2023-06-22T01:15:07;16.23;;;7.03;;
80778;SDS011;70170;47.856;10.956;2023-06-22T01:17:35;19.90;;;7.40;;
80778;SDS011;70170;47.856;10.956;2023-06-22T01:20:02;23.65;;;7.75;;
80778;SDS011;70170;47.856;10.956;2023-06-22T01:22:33;16.88;;;6.97;;
80778;SDS011;70170;47.856;10.956;2023-06-22T01:25:12;18.50;;;6.93;;
80778;SDS011;70170;47.856;10.956;2023-06-22T01:30:17;24.55;;;7.70;;
80778;SDS011;70170;47.856;10.956;2023-06-22T01:32:43;17.67;;;8.02;;
80778;SDS011;70170;47.856;10.956;2023-06-22T01:35:09;18.50;;;7.07;;
80778;SDS011;70170;47.856;10.956;2023-06-22T01:37:35;18.90;;;8.60;;
80778;SDS011;70170;47.856;10.956;2023-06-22T01:40:02;17.27;;;8.18;;
80778;SDS011;70170;47.856;10.956;2023-06-22T01:42:31;19.65;;;8.50;;
80778;SDS011;70170;47.856;10.956;2023-06-22T01:44:57;21.65;;;8.70;;
80778;SDS011;70170;47.856;10.956;2023-06-22T01:47:23;17.50;;;8.80;;
80778;SDS011;70170;47.856;10.956;2023-06-22T01:49:49;16.63;;;9.27;;
80778;SDS011;70170;47.856;10.956;2023-06-22T01:52:18;23.00;;;9.30;;
80778;SDS011;70170;47.856;10.956;2023-06-22T01:54:45;22.08;;;9.32;;
80778;SDS011;70170;47.856;10.956;2023-06-22T01:57:11;16.05;;;8.00;;
80778;SDS011;70170;47.856;10.956;2023-06-22T02:02:25;23.38;;;7.90;;
80778;SDS011;70170;47.856;10.956;2023-06-22T02:04:56;16.15;;;7.40;;
80778;SDS011;70170;47.856;10.956;2023-06-22T02:07:25;25.40;;;7.90;;
80778;SDS011;70170;47.856;10.956;2023-06-22T02:09:57;16.50;;;8.10;;
80778;SDS011;70170;47.856;10.956;2023-06-22T02:12:24;15.85;;;7.45;;
80778;SDS011;70170;47.856;10.956;2023-06-22T02:14:52;24.27;;;7.85;;
80778;SDS011;70170;47.856;10.956;2023-06-22T02:17:18;17.60;;;8.13;;
80778;SDS011;70170;47.856;10.956;2023-06-22T02:19:44;14.90;;;7.28;;
80778;SDS011;70170;47.856;10.956;2023-06-22T02:22:09;18.83;;;7.78;;
80778;SDS011;70170;47.856;10.956;2023-06-22T02:24:35;18.38;;;8.05;;
80778;SDS011;70170;47.856;10.956;2023-06-22T02:27:01;16.33;;;6.90;;
80778;SDS011;70170;47.856;10.956;2023-06-22T02:29:27;15.38;;;8.35;;
80778;SDS011;70170;47.856;10.956;2023-06-22T02:31:53;18.90;;;7.55;;
80778;SDS011;70170;47.856;10.956;2023-06-22T02:34:19;15.05;;;7.32;;
80778;SDS011;70170;47.856;10.956;2023-06-22T02:36:45;12.05;;;6.95;;
80778;SDS011;70170;47.856;10.956;2023-06-22T02:39:16;22.15;;;8.07;;
80778;SDS011;70170;47.856;10.956;2023-06-22T02:41:43;13.65;;;7.80;;
80778;SDS011;70170;47.856;10.956;2023-06-22T02:44:09;17.85;;;7.28;;
80778;SDS011;70170;47.856;10.956;2023-06-22T02:46:35;24.52;;;8.48;;
80778;SDS011;70170;47.856;10.956;2023-06-22T02:49:00;21.00;;;9.05;;
80778;SDS011;70170;47.856;10.956;2023-06-22T02:51:26;19.88;;;9.63;;
80778;SDS011;70170;47.856;10.956;2023-06-22T02:53:51;17.48;;;8.65;;
80778;SDS011;70170;47.856;10.956;2023-06-22T02:56:21;18.20;;;9.00;;
80778;SDS011;70170;47.856;10.956;2023-06-22T02:58:49;18.00;;;9.10;;
80778;SDS011;70170;47.856;10.956;2023-06-22T03:01:15;16.02;;;8.95;;
80778;SDS011;70170;47.856;10.956;2023-06-22T03:03:40;18.17;;;9.20;;
80778;SDS011;70170;47.856;10.956;2023-06-22T03:06:06;22.63;;;9.73;;
80778;SDS011;70170;47.856;10.956;2023-06-22T03:08:31;14.90;;;9.55;;
80778;SDS011;70170;47.856;10.956;2023-06-22T03:10:56;19.58;;;10.82;;
80778;SDS011;70170;47.856;10.956;2023-06-22T03:13:22;18.05;;;10.15;;
80778;SDS011;70170;47.856;10.956;2023-06-22T03:15:48;21.65;;;10.73;;
80778;SDS011;70170;47.856;10.956;2023-06-22T03:18:13;18.73;;;9.93;;
80778;SDS011;70170;47.856;10.956;2023-06-22T03:20:40;21.48;;;11.20;;
80778;SDS011;70170;47.856;10.956;2023-06-22T03:23:06;22.67;;;11.70;;
80778;SDS011;70170;47.856;10.956;2023-06-22T03:25:31;29.02;;;12.30;;
80778;SDS011;70170;47.856;10.956;2023-06-22T03:27:56;22.63;;;11.38;;
80778;SDS011;70170;47.856;10.956;2023-06-22T03:30:21;21.80;;;10.75;;
80778;SDS011;70170;47.856;10.956;2023-06-22T03:32:47;24.58;;;10.85;;
80778;SDS011;70170;47.856;10.956;2023-06-22T03:35:12;25.38;;;11.50;;
80778;SDS011;70170;47.856;10.956;2023-06-22T03:37:39;19.83;;;10.88;;
80778;SDS011;70170;47.856;10.956;2023-06-22T03:40:04;29.45;;;11.13;;
80778;SDS011;70170;47.856;10.956;2023-06-22T03:42:30;18.42;;;10.18;;
80778;SDS011;70170;47.856;10.956;2023-06-22T03:44:56;20.33;;;10.50;;
80778;SDS011;70170;47.856;10.956;2023-06-22T03:47:22;24.45;;;10.05;;
80778;SDS011;70170;47.856;10.956;2023-06-22T03:49:47;21.63;;;10.20;;
80778;SDS011;70170;47.856;10.956;2023-06-22T03:52:12;17.60;;;9.77;;
80778;SDS011;70170;47.856;10.956;2023-06-22T03:54:38;19.17;;;10.15;;
80778;SDS011;70170;47.856;10.956;2023-06-22T03:57:03;21.65;;;10.25;;
80778;SDS011;70170;47.856;10.956;2023-06-22T03:59:29;14.95;;;8.63;;
80778;SDS011;70170;47.856;10.956;2023-06-22T04:01:54;25.55;;;10.23;;
80778;SDS011;70170;47.856;10.956;2023-06-22T04:04:19;22.02;;;10.63;;
80778;SDS011;70170;47.856;10.956;2023-06-22T04:06:45;25.05;;;9.50;;
80778;SDS011;70170;47.856;10.956;2023-06-22T04:09:10;13.52;;;9.32;;
80778;SDS011;70170;47.856;10.956;2023-06-22T04:11:35;22.30;;;9.85;;
80778;SDS011;70170;47.856;10.956;2023-06-22T04:14:01;20.52;;;9.65;;
80778;SDS011;70170;47.856;10.956;2023-06-22T04:16:26;14.23;;;8.95;;
80778;SDS011;70170;47.856;10.956;2023-06-22T04:18:51;21.77;;;8.75;;
80778;SDS011;70170;47.856;10.956;2023-06-22T04:21:17;15.00;;;8.60;;
80778;SDS011;70170;47.856;10.956;2023-06-22T04:23:44;29.52;;;9.82;;
80778;SDS011;70170;47.856;10.956;2023-06-22T04:26:10;25.75;;;9.27;;
80778;SDS011;70170;47.856;10.956;2023-06-22T04:28:36;12.98;;;8.80;;
80778;SDS011;70170;47.856;10.956;2023-06-22T04:31:02;30.25;;;9.45;;
80778;SDS011;70170;47.856;10.956;2023-06-22T04:33:28;39.13;;;9.73;;
80778;SDS011;70170;47.856;10.956;2023-06-22T04:35:56;29.80;;;10.00;;
80778;SDS011;70170;47.856;10.956;2023-06-22T04:38:22;25.58;;;8.68;;
80778;SDS011;70170;47.856;10.956;2023-06-22T04:40:48;20.98;;;9.88;;
80778;SDS011;70170;47.856;10.956;2023-06-22T04:43:14;19.42;;;8.93;;
80778;SDS011;70170;47.856;10.956;2023-06-22T04:45:40;35.85;;;8.88;;
80778;SDS011;70170;47.856;10.956;2023-06-22T04:48:05;25.63;;;8.48;;
80778;SDS011;70170;47.856;10.956;2023-06-22T04:50:31;25.80;;;8.45;;
80778;SDS011;70170;47.856;10.956;2023-06-22T04:52:56;33.47;;;8.38;;
80778;SDS011;70170;47.856;10.956;2023-06-22T04:55:21;27.92;;;8.27;;
80778;SDS011;70170;47.856;10.956;2023-06-22T04:57:47;18.35;;;7.72;;
80778;SDS011;70170;47.856;10.956;2023-06-22T05:00:14;12.93;;;7.75;;
80778;SDS011;70170;47.856;10.956;2023-06-22T05:02:42;18.25;;;7.35;;
80778;SDS011;70170;47.856;10.956;2023-06-22T05:05:08;27.40;;;7.93;;
80778;SDS011;70170;47.856;10.956;2023-06-22T05:07:39;15.20;;;7.72;;
80778;SDS011;70170;47.856;10.956;2023-06-22T05:10:08;16.98;;;7.28;;
80778;SDS011;70170;47.856;10.956;2023-06-22T05:12:34;13.85;;;7.05;;
80778;SDS011;70170;47.856;10.956;2023-06-22T05:14:59;16.40;;;7.65;;
80778;SDS011;70170;47.856;10.956;2023-06-22T05:17:26;15.88;;;7.85;;
80778;SDS011;70170;47.856;10.956;2023-06-22T05:19:51;19.50;;;6.30;;
80778;SDS011;70170;47.856;10.956;2023-06-22T05:22:17;15.68;;;6.72;;
80778;SDS011;70170;47.856;10.956;2023-06-22T05:24:42;19.13;;;7.30;;
80778;SDS011;70170;47.856;10.956;2023-06-22T05:27:08;15.40;;;6.53;;
80778;SDS011;70170;47.856;10.956;2023-06-22T05:29:36;16.58;;;6.88;;
80778;SDS011;70170;47.856;10.956;2023-06-22T05:32:02;24.13;;;6.53;;
80778;SDS011;70170;47.856;10.956;2023-06-22T05:34:27;16.83;;;6.60;;
80778;SDS011;70170;47.856;10.956;2023-06-22T05:36:53;21.67;;;7.25;;
80778;SDS011;70170;47.856;10.956;2023-06-22T05:39:18;15.95;;;6.38;;
80778;SDS011;70170;47.856;10.956;2023-06-22T05:41:44;16.88;;;6.78;;
80778;SDS011;70170;47.856;10.956;2023-06-22T05:44:10;23.70;;;6.63;;
80778;SDS011;70170;47.856;10.956;2023-06-22T05:46:35;19.52;;;7.28;;
80778;SDS011;70170;47.856;10.956;2023-06-22T05:49:00;12.95;;;6.20;;
80778;SDS011;70170;47.856;10.956;2023-06-22T05:51:26;13.80;;;6.38;;
80778;SDS011;70170;47.856;10.956;2023-06-22T05:53:51;17.77;;;6.55;;
80778;SDS011;70170;47.856;10.956;2023-06-22T05:56:16;17.00;;;6.78;;
80778;SDS011;70170;47.856;10.956;2023-06-22T05:58:42;15.27;;;6.43;;
80778;SDS011;70170;47.856;10.956;2023-06-22T06:01:07;15.27;;;6.72;;
80778;SDS011;70170;47.856;10.956;2023-06-22T06:03:33;13.70;;;6.85;;
80778;SDS011;70170;47.856;10.956;2023-06-22T06:05:58;19.08;;;7.32;;
80778;SDS011;70170;47.856;10.956;2023-06-22T06:08:23;13.73;;;6.50;;
80778;SDS011;70170;47.856;10.956;2023-06-22T06:10:49;13.48;;;6.88;;
80778;SDS011;70170;47.856;10.956;2023-06-22T06:13:14;15.40;;;6.97;;
80778;SDS011;70170;47.856;10.956;2023-06-22T06:15:39;16.17;;;7.05;;
80778;SDS011;70170;47.856;10.956;2023-06-22T06:18:05;19.98;;;7.15;;
80778;SDS011;70170;47.856;10.956;2023-06-22T06:20:31;21.88;;;7.03;;
80778;SDS011;70170;47.856;10.956;2023-06-22T06:22:57;16.98;;;6.88;;
80778;SDS011;70170;47.856;10.956;2023-06-22T06:25:22;15.02;;;7.68;;
80778;SDS011;70170;47.856;10.956;2023-06-22T06:27:48;16.58;;;7.22;;
80778;SDS011;70170;47.856;10.956;2023-06-22T06:30:15;15.15;;;6.72;;
80778;SDS011;70170;47.856;10.956;2023-06-22T06:32:42;14.23;;;6.75;;
80778;SDS011;70170;47.856;10.956;2023-06-22T06:35:08;20.85;;;7.65;;
80778;SDS011;70170;47.856;10.956;2023-06-22T06:37:42;15.75;;;6.40;;
80778;SDS011;70170;47.856;10.956;2023-06-22T06:40:09;15.88;;;6.63;;
80778;SDS011;70170;47.856;10.956;2023-06-22T06:42:36;21.73;;;6.90;;
80778;SDS011;70170;47.856;10.956;2023-06-22T06:45:05;17.17;;;5.50;;
80778;SDS011;70170;47.856;10.956;2023-06-22T06:47:31;15.27;;;6.45;;
80778;SDS011;70170;47.856;10.956;2023-06-22T06:49:57;15.70;;;6.13;;
80778;SDS011;70170;47.856;10.956;2023-06-22T06:52:22;11.52;;;6.07;;
80778;SDS011;70170;47.856;10.956;2023-06-22T06:54:47;14.38;;;6.88;;
80778;SDS011;70170;47.856;10.956;2023-06-22T06:57:13;15.77;;;6.60;;
80778;SDS011;70170;47.856;10.956;2023-06-22T06:59:40;13.45;;;7.13;;
80778;SDS011;70170;47.856;10.956;2023-06-22T07:02:05;12.93;;;6.53;;
80778;SDS011;70170;47.856;10.956;2023-06-22T07:04:30;13.73;;;6.38;;
80778;SDS011;70170;47.856;10.956;2023-06-22T07:06:55;21.58;;;7.25;;
80778;SDS011;70170;47.856;10.956;2023-06-22T07:09:21;15.40;;;7.03;;
80778;SDS011;70170;47.856;10.956;2023-06-22T07:11:46;13.73;;;5.93;;
80778;SDS011;70170;47.856;10.956;2023-06-22T07:14:11;14.48;;;6.32;;
80778;SDS011;70170;47.856;10.956;2023-06-22T07:16:36;19.00;;;6.68;;
80778;SDS011;70170;47.856;10.956;2023-06-22T07:19:02;17.02;;;6.25;;
80778;SDS011;70170;47.856;10.956;2023-06-22T07:21:27;12.98;;;5.68;;
80778;SDS011;70170;47.856;10.956;2023-06-22T07:23:52;14.70;;;6.47;;
80778;SDS011;70170;47.856;10.956;2023-06-22T07:26:19;16.33;;;6.53;;
80778;SDS011;70170;47.856;10.956;2023-06-22T07:28:44;12.48;;;6.05;;
80778;SDS011;70170;47.856;10.956;2023-06-22T07:31:09;10.27;;;5.43;;
80778;SDS011;70170;47.856;10.956;2023-06-22T07:33:35;14.50;;;5.70;;
80778;SDS011;70170;47.856;10.956;2023-06-22T07:36:00;18.08;;;5.80;;
80778;SDS011;70170;47.856;10.956;2023-06-22T07:38:26;16.00;;;6.28;;
80778;SDS011;70170;47.856;10.956;2023-06-22T07:40:51;13.82;;;5.57;;
80778;SDS011;70170;47.856;10.956;2023-06-22T07:43:18;14.07;;;5.95;;
80778;SDS011;70170;47.856;10.956;2023-06-22T07:45:47;13.70;;;5.22;;
80778;SDS011;70170;47.856;10.956;2023-06-22T07:48:17;18.25;;;6.15;;
80778;SDS011;70170;47.856;10.956;2023-06-22T07:50:44;12.02;;;5.57;;
80778;SDS011;70170;47.856;10.956;2023-06-22T07:53:10;18.50;;;6.18;;
80778;SDS011;70170;47.856;10.956;2023-06-22T07:55:35;14.40;;;6.32;;
80778;SDS011;70170;47.856;10.956;2023-06-22T07:58:00;29.27;;;6.82;;
80778;SDS011;70170;47.856;10.956;2023-06-22T08:00:25;12.35;;;5.88;;
80778;SDS011;70170;47.856;10.956;2023-06-22T08:02:51;17.75;;;6.18;;
80778;SDS011;70170;47.856;10.956;2023-06-22T08:05:16;12.98;;;5.60;;
80778;SDS011;70170;47.856;10.956;2023-06-22T08:07:42;17.35;;;6.25;;
80778;SDS011;70170;47.856;10.956;2023-06-22T08:10:12;18.30;;;5.72;;
80778;SDS011;70170;47.856;10.956;2023-06-22T08:12:38;14.95;;;6.30;;
80778;SDS011;70170;47.856;10.956;2023-06-22T08:15:04;11.85;;;5.45;;
80778;SDS011;70170;47.856;10.956;2023-06-22T08:17:31;13.35;;;5.75;;
80778;SDS011;70170;47.856;10.956;2023-06-22T08:19:56;13.95;;;5.45;;
80778;SDS011;70170;47.856;10.956;2023-06-22T08:22:21;11.88;;;5.20;;
80778;SDS011;70170;47.856;10.956;2023-06-22T08:24:47;12.80;;;5.82;;
80778;SDS011;70170;47.856;10.956;2023-06-22T08:27:12;15.10;;;6.45;;
80778;SDS011;70170;47.856;10.956;2023-06-22T08:29:38;16.02;;;5.72;;
80778;SDS011;70170;47.856;10.956;2023-06-22T08:32:04;13.27;;;6.20;;
80778;SDS011;70170;47.856;10.956;2023-06-22T08:34:30;16.77;;;5.65;;
80778;SDS011;70170;47.856;10.956;2023-06-22T08:36:55;22.02;;;5.70;;
80778;SDS011;70170;47.856;10.956;2023-06-22T08:39:21;17.83;;;5.88;;
80778;SDS011;70170;47.856;10.956;2023-06-22T08:41:47;17.77;;;6.18;;
80778;SDS011;70170;47.856;10.956;2023-06-22T08:44:13;15.63;;;5.80;;
80778;SDS011;70170;47.856;10.956;2023-06-22T08:46:38;13.23;;;5.25;;
80778;SDS011;70170;47.856;10.956;2023-06-22T08:49:05;14.70;;;5.45;;
80778;SDS011;70170;47.856;10.956;2023-06-22T08:51:31;20.50;;;6.43;;
80778;SDS011;70170;47.856;10.956;2023-06-22T08:53:57;13.40;;;5.80;;
80778;SDS011;70170;47.856;10.956;2023-06-22T08:56:22;23.27;;;5.80;;
80778;SDS011;70170;47.856;10.956;2023-06-22T08:58:47;18.38;;;6.05;;
80778;SDS011;70170;47.856;10.956;2023-06-22T09:01:13;24.98;;;5.97;;
80778;SDS011;70170;47.856;10.956;2023-06-22T09:03:40;17.98;;;5.93;;
80778;SDS011;70170;47.856;10.956;2023-06-22T09:06:06;21.33;;;5.75;;
80778;SDS011;70170;47.856;10.956;2023-06-22T09:08:31;17.77;;;6.18;;
80778;SDS011;70170;47.856;10.956;2023-06-22T09:10:57;16.80;;;6.30;;
80778;SDS011;70170;47.856;10.956;2023-06-22T09:13:22;18.88;;;5.60;;
80778;SDS011;70170;47.856;10.956;2023-06-22T09:15:47;14.10;;;6.53;;
80778;SDS011;70170;47.856;10.956;2023-06-22T09:18:13;20.88;;;6.20;;
80778;SDS011;70170;47.856;10.956;2023-06-22T09:20:39;17.42;;;6.25;;
80778;SDS011;70170;47.856;10.956;2023-06-22T09:23:04;22.48;;;5.85;;
80778;SDS011;70170;47.856;10.956;2023-06-22T09:25:29;17.38;;;5.80;;
80778;SDS011;70170;47.856;10.956;2023-06-22T09:27:55;20.95;;;6.50;;
80778;SDS011;70170;47.856;10.956;2023-06-22T09:30:20;16.23;;;5.70;;
80778;SDS011;70170;47.856;10.956;2023-06-22T09:32:45;19.20;;;6.60;;
80778;SDS011;70170;47.856;10.956;2023-06-22T09:35:11;20.08;;;5.35;;
80778;SDS011;70170;47.856;10.956;2023-06-22T09:37:38;17.58;;;6.18;;
80778;SDS011;70170;47.856;10.956;2023-06-22T09:40:04;15.45;;;5.78;;
80778;SDS011;70170;47.856;10.956;2023-06-22T09:42:33;12.55;;;5.95;;
80778;SDS011;70170;47.856;10.956;2023-06-22T09:45:02;24.90;;;6.72;;
80778;SDS011;70170;47.856;10.956;2023-06-22T09:47:28;27.85;;;6.13;;
80778;SDS011;70170;47.856;10.956;2023-06-22T09:49:57;23.50;;;6.47;;
80778;SDS011;70170;47.856;10.956;2023-06-22T09:52:25;14.98;;;6.88;;
80778;SDS011;70170;47.856;10.956;2023-06-22T09:54:50;18.05;;;6.38;;
80778;SDS011;70170;47.856;10.956;2023-06-22T09:57:15;19.92;;;6.03;;
80778;SDS011;70170;47.856;10.956;2023-06-22T09:59:43;21.23;;;6.35;;
80778;SDS011;70170;47.856;10.956;2023-06-22T10:02:09;22.23;;;6.00;;
80778;SDS011;70170;47.856;10.956;2023-06-22T10:04:34;25.15;;;6.65;;
80778;SDS011;70170;47.856;10.956;2023-06-22T10:07:00;19.10;;;6.45;;
80778;SDS011;70170;47.856;10.956;2023-06-22T10:09:26;22.95;;;6.18;;
80778;SDS011;70170;47.856;10.956;2023-06-22T10:11:51;18.02;;;6.55;;
80778;SDS011;70170;47.856;10.956;2023-06-22T10:14:17;16.80;;;5.75;;
80778;SDS011;70170;47.856;10.956;2023-06-22T10:16:42;19.65;;;6.07;;
80778;SDS011;70170;47.856;10.956;2023-06-22T10:19:07;17.48;;;5.82;;
80778;SDS011;70170;47.856;10.956;2023-06-22T10:21:33;17.23;;;5.88;;
80778;SDS011;70170;47.856;10.956;2023-06-22T10:23:59;18.85;;;9.15;;
80778;SDS011;70170;47.856;10.956;2023-06-22T10:26:30;19.17;;;6.07;;
80778;SDS011;70170;47.856;10.956;2023-06-22T10:28:56;20.73;;;6.25;;
80778;SDS011;70170;47.856;10.956;2023-06-22T10:31:22;24.02;;;6.32;;
80778;SDS011;70170;47.856;10.956;2023-06-22T10:33:47;12.98;;;5.57;;
80778;SDS011;70170;47.856;10.956;2023-06-22T10:36:14;15.40;;;5.88;;
80778;SDS011;70170;47.856;10.956;2023-06-22T10:38:40;18.75;;;6.03;;
80778;SDS011;70170;47.856;10.956;2023-06-22T10:41:05;19.00;;;6.30;;
80778;SDS011;70170;47.856;10.956;2023-06-22T10:43:30;25.88;;;6.32;;
80778;SDS011;70170;47.856;10.956;2023-06-22T10:45:56;14.95;;;6.00;;
80778;SDS011;70170;47.856;10.956;2023-06-22T10:48:21;18.27;;;6.13;;
80778;SDS011;70170;47.856;10.956;2023-06-22T10:50:46;21.27;;;6.00;;
80778;SDS011;70170;47.856;10.956;2023-06-22T10:53:12;20.73;;;5.97;;
80778;SDS011;70170;47.856;10.956;2023-06-22T10:55:37;20.13;;;5.88;;
80778;SDS011;70170;47.856;10.956;2023-06-22T10:58:02;23.65;;;6.53;;
80778;SDS011;70170;47.856;10.956;2023-06-22T11:00:28;21.20;;;6.45;;
80778;SDS011;70170;47.856;10.956;2023-06-22T11:02:53;23.60;;;6.65;;
80778;SDS011;70170;47.856;10.956;2023-06-22T11:05:19;20.92;;;6.28;;
80778;SDS011;70170;47.856;10.956;2023-06-22T11:07:44;19.93;;;6.33;;
80778;SDS011;70170;47.856;10.956;2023-06-22T11:10:10;21.02;;;5.82;;
80778;SDS011;70170;47.856;10.956;2023-06-22T11:12:36;17.45;;;5.47;;
80778;SDS011;70170;47.856;10.956;2023-06-22T11:15:01;28.50;;;5.78;;
80778;SDS011;70170;47.856;10.956;2023-06-22T11:17:26;14.95;;;5.55;;
80778;SDS011;70170;47.856;10.956;2023-06-22T11:19:52;15.15;;;6.00;;
80778;SDS011;70170;47.856;10.956;2023-06-22T11:22:17;24.73;;;5.30;;
80778;SDS011;70170;47.856;10.956;2023-06-22T11:24:42;25.23;;;6.75;;
80778;SDS011;70170;47.856;10.956;2023-06-22T11:27:08;116.10;;;10.18;;
80778;SDS011;70170;47.856;10.956;2023-06-22T11:29:33;34.35;;;7.00;;
80778;SDS011;70170;47.856;10.956;2023-06-22T11:31:58;30.90;;;6.97;;
80778;SDS011;70170;47.856;10.956;2023-06-22T11:34:23;25.63;;;7.15;;
80778;SDS011;70170;47.856;10.956;2023-06-22T11:36:49;19.95;;;5.82;;
80778;SDS011;70170;47.856;10.956;2023-06-22T11:39:15;21.38;;;5.97;;
80778;SDS011;70170;47.856;10.956;2023-06-22T11:41:40;29.40;;;6.25;;
80778;SDS011;70170;47.856;10.956;2023-06-22T11:44:06;15.10;;;6.00;;
80778;SDS011;70170;47.856;10.956;2023-06-22T11:46:32;18.73;;;5.88;;
80778;SDS011;70170;47.856;10.956;2023-06-22T11:48:58;37.05;;;7.80;;
80778;SDS011;70170;47.856;10.956;2023-06-22T11:51:23;51.83;;;7.82;;
80778;SDS011;70170;47.856;10.956;2023-06-22T11:53:48;47.72;;;6.63;;
80778;SDS011;70170;47.856;10.956;2023-06-22T11:56:14;23.80;;;6.85;;
80778;SDS011;70170;47.856;10.956;2023-06-22T11:58:39;15.00;;;5.73;;
80778;SDS011;70170;47.856;10.956;2023-06-22T12:01:04;18.57;;;6.23;;
80778;SDS011;70170;47.856;10.956;2023-06-22T12:03:30;17.70;;;6.00;;
80778;SDS011;70170;47.856;10.956;2023-06-22T12:05:55;20.27;;;6.97;;
80778;SDS011;70170;47.856;10.956;2023-06-22T12:08:21;21.10;;;6.32;;
80778;SDS011;70170;47.856;10.956;2023-06-22T12:10:47;15.77;;;5.75;;
80778;SDS011;70170;47.856;10.956;2023-06-22T12:13:12;19.98;;;5.93;;
80778;SDS011;70170;47.856;10.956;2023-06-22T12:15:38;15.95;;;5.70;;
80778;SDS011;70170;47.856;10.956;2023-06-22T12:18:03;26.92;;;6.40;;
80778;SDS011;70170;47.856;10.956;2023-06-22T12:20:28;22.15;;;6.45;;
80778;SDS011;70170;47.856;10.956;2023-06-22T12:22:54;25.80;;;7.55;;
80778;SDS011;70170;47.856;10.956;2023-06-22T12:25:21;22.35;;;5.95;;
80778;SDS011;70170;47.856;10.956;2023-06-22T12:27:47;19.77;;;6.05;;
80778;SDS011;70170;47.856;10.956;2023-06-22T12:30:12;14.57;;;6.05;;
80778;SDS011;70170;47.856;10.956;2023-06-22T12:32:38;13.45;;;5.43;;
80778;SDS011;70170;47.856;10.956;2023-06-22T12:35:03;21.60;;;5.65;;
80778;SDS011;70170;47.856;10.956;2023-06-22T12:37:29;22.05;;;6.57;;
80778;SDS011;70170;47.856;10.956;2023-06-22T12:39:56;18.27;;;5.55;;
80778;SDS011;70170;47.856;10.956;2023-06-22T12:42:22;15.85;;;6.05;;
80778;SDS011;70170;47.856;10.956;2023-06-22T12:44:47;16.52;;;5.78;;
80778;SDS011;70170;47.856;10.956;2023-06-22T12:47:12;20.65;;;6.13;;
80778;SDS011;70170;47.856;10.956;2023-06-22T12:49:38;18.55;;;6.43;;
80778;SDS011;70170;47.856;10.956;2023-06-22T12:52:08;27.20;;;6.75;;
80778;SDS011;70170;47.856;10.956;2023-06-22T12:54:36;22.50;;;6.07;;
80778;SDS011;70170;47.856;10.956;2023-06-22T12:57:02;15.65;;;6.18;;
80778;SDS011;70170;47.856;10.956;2023-06-22T12:59:27;18.10;;;6.25;;
80778;SDS011;70170;47.856;10.956;2023-06-22T13:01:53;22.60;;;6.32;;
80778;SDS011;70170;47.856;10.956;2023-06-22T13:04:18;33.08;;;6.00;;
80778;SDS011;70170;47.856;10.956;2023-06-22T13:06:44;16.98;;;5.90;;
80778;SDS011;70170;47.856;10.956;2023-06-22T13:09:13;25.20;;;6.10;;
80778;SDS011;70170;47.856;10.956;2023-06-22T13:11:39;26.02;;;6.65;;
80778;SDS011;70170;47.856;10.956;2023-06-22T13:14:04;22.67;;;5.97;;
80778;SDS011;70170;47.856;10.956;2023-06-22T13:16:29;15.60;;;5.97;;
80778;SDS011;70170;47.856;10.956;2023-06-22T13:18:55;11.80;;;4.97;;
80778;SDS011;70170;47.856;10.956;2023-06-22T13:21:20;24.97;;;5.77;;
80778;SDS011;70170;47.856;10.956;2023-06-22T13:23:45;25.35;;;5.65;;
80778;SDS011;70170;47.856;10.956;2023-06-22T13:26:14;17.37;;;5.60;;
80778;SDS011;70170;47.856;10.956;2023-06-22T13:28:39;26.20;;;5.75;;
80778;SDS011;70170;47.856;10.956;2023-06-22T13:31:04;21.95;;;5.82;;
80778;SDS011;70170;47.856;10.956;2023-06-22T13:33:30;18.60;;;5.40;;
80778;SDS011;70170;47.856;10.956;2023-06-22T13:35:56;25.80;;;6.07;;
80778;SDS011;70170;47.856;10.956;2023-06-22T13:38:21;23.13;;;5.70;;
80778;SDS011;70170;47.856;10.956;2023-06-22T13:40:49;15.82;;;5.80;;
80778;SDS011;70170;47.856;10.956;2023-06-22T13:43:14;14.90;;;6.18;;
80778;SDS011;70170;47.856;10.956;2023-06-22T13:45:41;17.75;;;5.65;;
80778;SDS011;70170;47.856;10.956;2023-06-22T13:48:06;19.50;;;5.38;;
80778;SDS011;70170;47.856;10.956;2023-06-22T13:50:32;26.35;;;5.70;;
80778;SDS011;70170;47.856;10.956;2023-06-22T13:52:58;19.88;;;6.10;;
80778;SDS011;70170;47.856;10.956;2023-06-22T13:55:23;17.98;;;5.47;;
80778;SDS011;70170;47.856;10.956;2023-06-22T13:57:48;17.33;;;6.10;;
80778;SDS011;70170;47.856;10.956;2023-06-22T14:00:14;23.83;;;5.80;;
80778;SDS011;70170;47.856;10.956;2023-06-22T14:02:40;28.10;;;6.68;;
80778;SDS011;70170;47.856;10.956;2023-06-22T14:05:06;24.35;;;5.93;;
80778;SDS011;70170;47.856;10.956;2023-06-22T14:07:32;24.88;;;5.85;;
80778;SDS011;70170;47.856;10.956;2023-06-22T14:09:57;19.48;;;5.75;;
80778;SDS011;70170;47.856;10.956;2023-06-22T14:12:23;13.73;;;5.50;;
80778;SDS011;70170;47.856;10.956;2023-06-22T14:14:48;22.75;;;5.47;;
80778;SDS011;70170;47.856;10.956;2023-06-22T14:17:14;22.77;;;5.00;;
80778;SDS011;70170;47.856;10.956;2023-06-22T14:19:39;21.52;;;5.25;;
80778;SDS011;70170;47.856;10.956;2023-06-22T14:22:04;23.90;;;5.60;;